Terminal Aerodrome Forecast
Issued by NWS Wilmington, NC

Home | Current Version | Previous Version | Text Only | Print | Product List | Glossary On
Versions: 1 2 3 4 5 6 7 8 9 10 11 12 13 14 15 16
390
FTUS42 KILM 250532 AAA
TAFFLO
TAF AMD
KFLO 250532Z 2506/2606 34005KT 5SM BR VCSH OVC008
      TEMPO 2506/2510 1SM -SHRA BR OVC004
     FM251500 29009KT P6SM BKN008 PROB30 2515/2516 3SM SHRA OVC005
     FM252200 30007KT P6SM BKN020
     FM260300 30006KT P6SM SCT150=

USA.gov is the U.S. government's official web portal to all federal, state and local government web resources and services.